Time;durP1;ratioP1;P1;durP2;ratioP2;P2;SDS_P1;SDS_P2;PMS_P1;PMS_P2;Temp;Humidity;BMP_temperature;BMP_pressure;BME280_temperature;BME280_humidity;BME280_pressure;Samples;Min_cycle;Max_cycle;Signal;HPM_P1;HPM_P2
2022/05/17 00:01:59;;;;;;;;;;;;;;;;;;5051368;28;20431;-68
2022/05/17 00:04:25;;;;;;;;;;;;;;;;;;5051715;28;19920;-69
2022/05/17 00:06:51;;;;;;;;;;;;;;;;;;5051826;28;20281;-69
2022/05/17 00:09:17;;;;;;;;;;;;;;;;;;5050646;28;19913;-69
2022/05/17 00:11:44;;;;;;;;;;;;;;;;;;5051737;28;19916;-69
2022/05/17 00:14:10;;;;;;;;;;;;;;;;;;5051907;28;20307;-67
2022/05/17 00:16:36;;;;;;;;;;;;;;;;;;5049923;28;19913;-68
2022/05/17 00:19:01;;;;;;;;;;;;;;;;;;5051175;28;19955;-69
2022/05/17 00:21:27;;;;;;;;;;;;;;;;;;5051812;28;20520;-70
2022/05/17 00:23:53;;;;;;;;;;;;;;;;;;5051663;28;20003;-69
2022/05/17 00:26:19;;;;;;;;;;;;;;;;;;5049455;28;20320;-69
2022/05/17 00:28:45;;;;;;;;;;;;;;;;;;5050925;28;19928;-70
2022/05/17 00:31:11;;;;;;;;;;;;;;;;;;5052357;28;19936;-67
2022/05/17 00:33:37;;;;;;;;;;;;;;;;;;5052464;28;19968;-70
2022/05/17 00:36:03;;;;;;;;;;;;;;;;;;5055157;28;19909;-72
2022/05/17 00:38:29;;;;;;;;;;;;;;;;;;5054819;28;19908;-71
2022/05/17 00:40:54;;;;;;;;;;;;;;;;;;5055007;28;20361;-70
2022/05/17 00:43:20;;;;;;;;;;;;;;;;;;5045967;28;19913;-71
2022/05/17 00:45:46;;;;;;;;;;;;;;;;;;5054961;28;19909;-69
2022/05/17 00:48:12;;;;;;;;;;;;;;;;;;5054944;28;19909;-68
2022/05/17 00:50:38;;;;;;;;;;;;;;;;;;5054595;28;19916;-69
2022/05/17 00:53:04;;;;;;;;;;;;;;;;;;5050931;28;19921;-68
2022/05/17 00:55:30;;;;;;;;;;;;;;;;;;5054870;28;19913;-70
2022/05/17 00:57:56;;;;;;;;;;;;;;;;;;5054769;28;19940;-69
2022/05/17 01:00:22;;;;;;;;;;;;;;;;;;5054456;28;20368;-68
2022/05/17 01:02:47;;;;;;;;;;;;;;;;;;5047543;28;19912;-71
2022/05/17 01:05:14;;;;;;;;;;;;;;;;;;5050977;28;19913;-70
2022/05/17 01:07:39;;;;;;;;;;;;;;;;;;5054465;28;19909;-69
2022/05/17 01:10:05;;;;;;;;;;;;;;;;;;5054130;28;19920;-72
2022/05/17 01:12:31;;;;;;;;;;;;;;;;;;5054591;28;20360;-67
2022/05/17 01:14:57;;;;;;;;;;;;;;;;;;5052672;28;19958;-70
2022/05/17 01:17:23;;;;;;;;;;;;;;;;;;5054482;28;20246;-70
2022/05/17 01:19:49;;;;;;;;;;;;;;;;;;5053975;28;19909;-70
2022/05/17 01:22:17;;;;;;;;;;;;;;;;;;5054534;28;19909;-71
2022/05/17 01:24:43;;;;;;;;;;;;;;;;;;5051610;28;19917;-71
2022/05/17 01:27:08;;;;;;;;;;;;;;;;;;5043455;28;19928;-69
2022/05/17 01:29:34;;;;;;;;;;;;;;;;;;5053705;28;20350;-70
2022/05/17 01:32:00;;;;;;;;;;;;;;;;;;5054211;28;19909;-70
2022/05/17 01:34:26;;;;;;;;;;;;;;;;;;5054240;28;19913;-71
2022/05/17 01:36:53;;;;;;;;;;;;;;;;;;5046435;28;19913;-71
2022/05/17 01:39:19;;;;;;;;;;;;;;;;;;5049484;28;19913;-70
2022/05/17 01:41:45;;;;;;;;;;;;;;;;;;5053272;28;19909;-71
2022/05/17 01:44:11;;;;;;;;;;;;;;;;;;5053550;28;20318;-71
2022/05/17 01:46:37;;;;;;;;;;;;;;;;;;5054032;28;19905;-70
2022/05/17 01:49:03;;;;;;;;;;;;;;;;;;5048621;28;20277;-71
2022/05/17 01:51:28;;;;;;;;;;;;;;;;;;5053816;28;19920;-69
2022/05/17 01:53:54;;;;;;;;;;;;;;;;;;5055047;28;19912;-70
2022/05/17 01:56:20;;;;;;;;;;;;;;;;;;5053861;28;20388;-68
2022/05/17 01:58:46;;;;;;;;;;;;;;;;;;5047158;28;19920;-68
2022/05/17 02:01:12;;;;;;;;;;;;;;;;;;5041226;28;20265;-67
2022/05/17 02:03:38;;;;;;;;;;;;;;;;;;5052755;28;19913;-67
2022/05/17 02:06:04;;;;;;;;;;;;;;;;;;5053460;28;19909;-68
2022/05/17 02:08:30;;;;;;;;;;;;;;;;;;5052152;28;19963;-67
2022/05/17 02:10:56;;;;;;;;;;;;;;;;;;5053207;28;19916;-68
2022/05/17 02:13:22;;;;;;;;;;;;;;;;;;5053452;28;19912;-69
2022/05/17 02:15:48;;;;;;;;;;;;;;;;;;5053190;28;20413;-71
2022/05/17 02:18:13;;;;;;;;;;;;;;;;;;5049506;28;19920;-69
2022/05/17 02:20:39;;;;;;;;;;;;;;;;;;5052653;28;19944;-71
2022/05/17 02:23:07;;;;;;;;;;;;;;;;;;5053073;28;19913;-71
2022/05/17 02:25:33;;;;;;;;;;;;;;;;;;5053221;28;19909;-71
2022/05/17 02:27:59;;;;;;;;;;;;;;;;;;5045217;28;20414;-70
2022/05/17 02:30:25;;;;;;;;;;;;;;;;;;5052593;28;20281;-67
2022/05/17 02:32:51;;;;;;;;;;;;;;;;;;5052995;28;20346;-69
2022/05/17 02:35:16;;;;;;;;;;;;;;;;;;5053076;28;19916;-68
2022/05/17 02:37:42;;;;;;;;;;;;;;;;;;5043641;28;19914;-69
2022/05/17 02:40:08;;;;;;;;;;;;;;;;;;5048280;28;19924;-69
2022/05/17 02:42:34;;;;;;;;;;;;;;;;;;5052686;28;19905;-69
2022/05/17 02:45:00;;;;;;;;;;;;;;;;;;5052807;28;20007;-69
2022/05/17 02:47:26;;;;;;;;;;;;;;;;;;5052983;28;19912;-69
2022/05/17 02:49:52;;;;;;;;;;;;;;;;;;5050780;28;20043;-71
2022/05/17 02:52:18;;;;;;;;;;;;;;;;;;5052021;28;19960;-69
2022/05/17 02:54:44;;;;;;;;;;;;;;;;;;5052249;28;19913;-71
2022/05/17 02:57:10;;;;;;;;;;;;;;;;;;5052710;28;20308;-70
2022/05/17 02:59:36;;;;;;;;;;;;;;;;;;5048230;28;19913;-69
2022/05/17 03:02:02;;;;;;;;;;;;;;;;;;5051777;28;19992;-69
2022/05/17 03:04:28;;;;;;;;;;;;;;;;;;5052467;28;20102;-70
2022/05/17 03:06:53;;;;;;;;;;;;;;;;;;5052608;28;19915;-71
2022/05/17 03:09:19;;;;;;;;;;;;;;;;;;5045148;28;19929;-70
2022/05/17 03:11:45;;;;;;;;;;;;;;;;;;5051853;28;19920;-69
2022/05/17 03:14:11;;;;;;;;;;;;;;;;;;5048159;28;20364;-70
2022/05/17 03:16:37;;;;;;;;;;;;;;;;;;5052371;28;19912;-70
2022/05/17 03:19:03;;;;;;;;;;;;;;;;;;5051847;28;20258;-72
2022/05/17 03:21:29;;;;;;;;;;;;;;;;;;5052446;28;19962;-70
2022/05/17 03:23:55;;;;;;;;;;;;;;;;;;5050619;28;19913;-70
2022/05/17 03:26:21;;;;;;;;;;;;;;;;;;5052316;28;19908;-71
2022/05/17 03:28:46;;;;;;;;;;;;;;;;;;5051619;28;20277;-71
2022/05/17 03:31:12;;;;;;;;;;;;;;;;;;5052258;28;19916;-69
2022/05/17 03:33:38;;;;;;;;;;;;;;;;;;5049763;28;19964;-69
2022/05/17 03:36:04;;;;;;;;;;;;;;;;;;5052003;28;20430;-70
2022/05/17 03:38:30;;;;;;;;;;;;;;;;;;5050937;28;20253;-69
2022/05/17 03:40:58;;;;;;;;;;;;;;;;;;5047017;28;19946;-69
2022/05/17 03:43:24;;;;;;;;;;;;;;;;;;5047900;28;19920;-71
2022/05/17 03:45:50;;;;;;;;;;;;;;;;;;5051904;28;20001;-71
2022/05/17 03:48:16;;;;;;;;;;;;;;;;;;5053290;28;19905;-70
2022/05/17 03:50:42;;;;;;;;;;;;;;;;;;5043625;28;19913;-69
2022/05/17 03:53:08;;;;;;;;;;;;;;;;;;5051933;28;19917;-70
2022/05/17 03:55:34;;;;;;;;;;;;;;;;;;5052000;28;19947;-70
2022/05/17 03:58:00;;;;;;;;;;;;;;;;;;5052012;28;20277;-70
2022/05/17 04:00:26;;;;;;;;;;;;;;;;;;5043978;28;20450;-70
2022/05/17 04:02:51;;;;;;;;;;;;;;;;;;5051836;28;19999;-70
2022/05/17 04:05:17;;;;;;;;;;;;;;;;;;5052256;28;19909;-69
2022/05/17 04:07:43;;;;;;;;;;;;;;;;;;5055745;28;20411;-68
2022/05/17 04:10:09;;;;;;;;;;;;;;;;;;5051183;28;19913;-72
2022/05/17 04:12:35;;;;;;;;;;;;;;;;;;5048431;28;19913;-72
2022/05/17 04:15:01;;;;;;;;;;;;;;;;;;5050477;28;19913;-73
2022/05/17 04:17:27;;;;;;;;;;;;;;;;;;5053487;28;19917;-72
2022/05/17 04:19:53;;;;;;;;;;;;;;;;;;5050684;28;19920;-73
2022/05/17 04:22:19;;;;;;;;;;;;;;;;;;5052189;28;19929;-73
2022/05/17 04:24:45;;;;;;;;;;;;;;;;;;5055168;28;20270;-73
2022/05/17 04:27:12;;;;;;;;;;;;;;;;;;5055254;28;19909;-72
2022/05/17 04:29:38;;;;;;;;;;;;;;;;;;5051909;28;19921;-73
2022/05/17 04:32:04;;;;;;;;;;;;;;;;;;5055488;28;19909;-72
2022/05/17 04:34:31;;;;;;;;;;;;;;;;;;5055175;28;19921;-74
2022/05/17 04:36:57;;;;;;;;;;;;;;;;;;5045312;28;20274;-73
2022/05/17 04:39:24;;;;;;;;;;;;;;;;;;5052551;28;19920;-73
2022/05/17 04:41:50;;;;;;;;;;;;;;;;;;5053972;28;19913;-72
2022/05/17 04:44:16;;;;;;;;;;;;;;;;;;5055129;28;19909;-69
2022/05/17 04:46:41;;;;;;;;;;;;;;;;;;5055068;28;19916;-69
2022/05/17 04:49:07;;;;;;;;;;;;;;;;;;5054366;28;19982;-69
2022/05/17 04:51:33;;;;;;;;;;;;;;;;;;5054956;28;20372;-71
2022/05/17 04:54:00;;;;;;;;;;;;;;;;;;5054859;28;20007;-72
2022/05/17 04:56:26;;;;;;;;;;;;;;;;;;5055100;28;19909;-72
2022/05/17 04:58:52;;;;;;;;;;;;;;;;;;5054456;28;20059;-71
2022/05/17 05:01:17;;;;;;;;;;;;;;;;;;5054836;28;19916;-72
2022/05/17 05:03:43;;;;;;;;;;;;;;;;;;5054789;28;20280;-70
2022/05/17 05:06:09;;;;;;;;;;;;;;;;;;5054869;28;19955;-71
2022/05/17 05:08:35;;;;;;;;;;;;;;;;;;5055555;28;19999;-70
2022/05/17 05:11:01;;;;;;;;;;;;;;;;;;5054455;28;19909;-70
2022/05/17 05:13:27;;;;;;;;;;;;;;;;;;5054760;28;19975;-73
2022/05/17 05:15:55;;;;;;;;;;;;;;;;;;5054642;28;19915;-71
2022/05/17 05:18:21;;;;;;;;;;;;;;;;;;5054247;28;19913;-72
2022/05/17 05:20:47;;;;;;;;;;;;;;;;;;5054092;28;20372;-73
2022/05/17 05:23:13;;;;;;;;;;;;;;;;;;5054336;28;19908;-75
2022/05/17 05:25:38;;;;;;;;;;;;;;;;;;5054306;28;19905;-72
2022/05/17 05:28:04;;;;;;;;;;;;;;;;;;5053978;28;19920;-73
2022/05/17 05:30:30;;;;;;;;;;;;;;;;;;5049662;28;19917;-70
2022/05/17 05:32:56;;;;;;;;;;;;;;;;;;5051106;28;19921;-70
2022/05/17 05:35:22;;;;;;;;;;;;;;;;;;5045746;28;20255;-74
2022/05/17 05:37:48;;;;;;;;;;;;;;;;;;5053560;28;20018;-71
2022/05/17 05:40:14;;;;;;;;;;;;;;;;;;5053457;28;20277;-71
2022/05/17 05:42:40;;;;;;;;;;;;;;;;;;5050181;28;19916;-70
2022/05/17 05:45:06;;;;;;;;;;;;;;;;;;5058350;23;19925;-81
2022/05/17 05:47:32;;;;;;;;;;;;;;;;;;5055251;28;19909;-83
2022/05/17 05:49:57;;;;;;;;;;;;;;;;;;5053576;28;19914;-82
2022/05/17 05:52:23;;;;;;;;;;;;;;;;;;5054163;28;19908;-80
2022/05/17 05:54:49;;;;;;;;;;;;;;;;;;5055320;28;20429;-82
2022/05/17 05:57:15;;;;;;;;;;;;;;;;;;5054566;28;19948;-82
2022/05/17 05:59:41;;;;;;;;;;;;;;;;;;5055066;28;19963;-82
2022/05/17 06:02:07;;;;;;;;;;;;;;;;;;5055018;28;19916;-82
2022/05/17 06:04:33;;;;;;;;;;;;;;;;;;5055109;28;20265;-82
2022/05/17 06:06:59;;;;;;;;;;;;;;;;;;5055475;28;19909;-82
2022/05/17 06:09:24;;;;;;;;;;;;;;;;;;5055268;28;19984;-81
2022/05/17 06:11:50;;;;;;;;;;;;;;;;;;5055171;28;19916;-81
2022/05/17 06:14:16;;;;;;;;;;;;;;;;;;5054465;28;19939;-82
2022/05/17 06:16:42;;;;;;;;;;;;;;;;;;5053058;28;19958;-81
2022/05/17 06:19:08;;;;;;;;;;;;;;;;;;5053525;28;19919;-81
2022/05/17 06:21:34;;;;;;;;;;;;;;;;;;5052360;28;20015;-81
2022/05/17 06:24:00;;;;;;;;;;;;;;;;;;5053586;28;20291;-81
2022/05/17 06:26:26;;;;;;;;;;;;;;;;;;5053480;28;19909;-81
2022/05/17 06:28:52;;;;;;;;;;;;;;;;;;5052573;28;19932;-83
2022/05/17 06:31:17;;;;;;;;;;;;;;;;;;5053555;28;20008;-80
2022/05/17 06:33:43;;;;;;;;;;;;;;;;;;5039778;28;21199;-81
2022/05/17 06:36:09;;;;;;;;;;;;;;;;;;5037706;28;19923;-82
2022/05/17 06:38:35;;;;;;;;;;;;;;;;;;5036076;28;19913;-81
2022/05/17 06:41:03;;;;;;;;;;;;;;;;;;5032287;28;19909;-81
2022/05/17 06:43:29;;;;;;;;;;;;;;;;;;5032301;28;19920;-81
2022/05/17 06:45:55;;;;;;;;;;;;;;;;;;5032415;28;19909;-81
2022/05/17 06:48:21;;;;;;;;;;;;;;;;;;5032309;28;19932;-81
2022/05/17 06:50:47;;;;;;;;;;;;;;;;;;5031559;28;19913;-81
2022/05/17 06:53:13;;;;;;;;;;;;;;;;;;5033711;28;19912;-81
2022/05/17 06:55:39;;;;;;;;;;;;;;;;;;5032093;28;19913;-82
2022/05/17 06:58:05;;;;;;;;;;;;;;;;;;5033729;28;19963;-80
2022/05/17 07:00:31;;;;;;;;;;;;;;;;;;5032396;28;20249;-81
2022/05/17 07:02:57;;;;;;;;;;;;;;;;;;5033797;28;19920;-79
2022/05/17 07:05:23;;;;;;;;;;;;;;;;;;5031552;28;19913;-82
2022/05/17 07:07:49;;;;;;;;;;;;;;;;;;5033123;28;19913;-83
2022/05/17 07:13:09;;;;;;;;;;;;;;;;;;5032819;28;19924;-80
2022/05/17 07:15:35;;;;;;;;;;;;;;;;;;5033015;28;19920;-80
2022/05/17 07:18:01;;;;;;;;;;;;;;;;;;5033381;28;19909;-79
2022/05/17 07:20:26;;;;;;;;;;;;;;;;;;5031130;28;19924;-81
2022/05/17 07:22:52;;;;;;;;;;;;;;;;;;5032762;28;20004;-80
2022/05/17 07:25:18;;;;;;;;;;;;;;;;;;5032920;28;19918;-81
2022/05/17 07:27:45;;;;;;;;;;;;;;;;;;5031563;28;20090;-80
2022/05/17 07:30:10;;;;;;;;;;;;;;;;;;5033413;28;19990;-81
2022/05/17 07:32:36;;;;;;;;;;;;;;;;;;5031401;28;19909;-81
2022/05/17 07:35:02;;;;;;;;;;;;;;;;;;5032804;28;19916;-82
2022/05/17 07:37:28;;;;;;;;;;;;;;;;;;5032609;28;20383;-81
2022/05/17 07:39:54;;;;;;;;;;;;;;;;;;5031102;28;20388;-80
2022/05/17 07:42:20;;;;;;;;;;;;;;;;;;5036744;28;19916;-81
2022/05/17 07:44:46;;;;;;;;;;;;;;;;;;5036449;28;19917;-81
2022/05/17 07:47:12;;;;;;;;;;;;;;;;;;5035048;28;19916;-81
2022/05/17 07:49:38;;;;;;;;;;;;;;;;;;5037049;28;20330;-81
2022/05/17 07:52:04;;;;;;;;;;;;;;;;;;5037515;28;19913;-83
2022/05/17 07:54:30;;;;;;;;;;;;;;;;;;5036576;28;20632;-81
2022/05/17 07:56:56;;;;;;;;;;;;;;;;;;5035303;28;19913;-81
2022/05/17 07:59:22;;;;;;;;;;;;;;;;;;5035008;28;19917;-82
2022/05/17 08:01:48;;;;;;;;;;;;;;;;;;5035441;28;19909;-82
2022/05/17 08:04:14;;;;;;;;;;;;;;;;;;5037444;28;19920;-80
2022/05/17 08:06:40;;;;;;;;;;;;;;;;;;5037476;28;19916;-80
2022/05/17 08:09:06;;;;;;;;;;;;;;;;;;5037157;28;19909;-79
2022/05/17 08:11:32;;;;;;;;;;;;;;;;;;5035608;28;19938;-80
2022/05/17 08:13:58;;;;;;;;;;;;;;;;;;5037044;28;19936;-82
2022/05/17 08:16:23;;;;;;;;;;;;;;;;;;5035818;28;19916;-82
2022/05/17 08:18:49;;;;;;;;;;;31.20;79.00;;;;;;5033919;28;19920;-85
2022/05/17 08:21:14;;;;;;;;;;;29.80;63.20;;;;;;5035675;28;19913;-82
2022/05/17 08:23:40;;;;;;;;;;;29.90;60.10;;;;;;5036160;28;19963;-84
2022/05/17 08:28:50;;;;;;;;;;;30.50;61.90;;;;;;5034816;28;20337;-85
2022/05/17 08:31:15;;;;;;;;;;;30.80;63.30;;;;;;5033570;28;19913;-85
2022/05/17 08:33:41;;;;;;;;;;;31.10;63.10;;;;;;5034390;28;19920;-85
2022/05/17 08:36:10;;;;;;;;;;;31.10;64.40;;;;;;5034662;28;19917;-85
2022/05/17 08:38:39;;;;;;;;;;;31.10;63.70;;;;;;5033149;28;19909;-85
2022/05/17 08:41:05;;;;;;;;;;;31.50;64.10;;;;;;5034596;28;19920;-84
2022/05/17 08:43:45;;;;;;;;;;;31.40;63.60;;;;;;5034628;28;19917;-85
2022/05/17 08:46:22;;;;;;;;;;;31.40;64.50;;;;;;5033203;28;20004;-84
2022/05/17 08:48:50;;;;;;;;;;;31.40;69.50;;;;;;5031978;28;20000;-84
2022/05/17 08:51:17;;;;;;;;;;;31.30;70.30;;;;;;5031812;28;20265;-85
2022/05/17 08:53:44;;;;;;;;;;;31.10;70.50;;;;;;5033967;28;19925;-86
2022/05/17 08:56:12;;;;;;;;;;;30.70;71.40;;;;;;5034105;28;19909;-84
2022/05/17 08:58:39;;;;;;;;;;;30.50;71.00;;;;;;5034028;28;20518;-85
2022/05/17 09:01:13;;;;;;;;;;;30.40;72.60;;;;;;5033278;28;20273;-84
2022/05/17 09:03:51;;;;;;;;;;;29.90;73.40;;;;;;5034482;28;19917;-84
2022/05/17 09:06:16;;;;;;;;;;;29.80;75.20;;;;;;5036209;28;20280;-86
2022/05/17 09:08:48;;;;;;;;;;;29.70;75.50;;;;;;5032276;28;20357;-85
2022/05/17 09:11:13;;;;;;;;;;;30.00;76.30;;;;;;5032697;28;19997;-85
2022/05/17 09:13:42;;;;;;;;;;;30.40;74.90;;;;;;5032606;28;20000;-85
2022/05/17 09:16:07;;;;;;;;;;;30.50;74.40;;;;;;5033686;28;19914;-85
2022/05/17 09:18:33;;;;;;;;;;;30.30;74.80;;;;;;5032043;28;19919;-84
2022/05/17 09:20:59;;;;;;;;;;;29.90;75.90;;;;;;5033577;28;19988;-86
2022/05/17 09:23:24;;;;;;;;;;;29.40;76.70;;;;;;5032562;28;19910;-85
2022/05/17 09:25:58;;;;;;;;;;;29.40;77.50;;;;;;5033618;28;20025;-85
2022/05/17 09:28:26;;;;;;;;;;;29.30;77.50;;;;;;5033342;28;19909;-85
2022/05/17 09:31:08;;;;;;;;;;;29.70;77.80;;;;;;5032192;28;20368;-84
2022/05/17 09:33:34;;;;;;;;;;;29.90;77.80;;;;;;5032140;28;19917;-85
2022/05/17 09:36:01;;;;;;;;;;;29.90;78.10;;;;;;5033528;28;20287;-85
2022/05/17 09:38:30;;;;;;;;;;;30.10;77.00;;;;;;5032319;28;19913;-85
2022/05/17 09:40:56;;;;;;;;;;;30.50;75.80;;;;;;5032224;28;19962;-85
2022/05/17 09:43:35;;;;;;;;;;;30.80;74.70;;;;;;5032531;28;19916;-85
2022/05/17 09:46:08;;;;;;;;;;;30.90;75.20;;;;;;5032811;28;19913;-85
2022/05/17 09:52:32;;;;;;;;;;;;;;;;;;5031961;28;19913;-84
2022/05/17 09:54:05;;;;;;;;;;;;;;;;;;5033693;28;19920;-85
2022/05/17 09:56:31;;;;;;;;;;;;;;;;;;5032866;28;20268;-84
2022/05/17 09:58:57;;;;;;;;;;;;;;;;;;5031565;28;20012;-85
2022/05/17 10:01:23;;;;;;;;;;;;;;;;;;5031905;28;19909;-86
2022/05/17 10:03:49;;;;;;;;;;;;;;;;;;5032079;28;19948;-85
2022/05/17 10:06:14;;;;;;;;;;;;;;;;;;5032997;28;19913;-84
2022/05/17 10:08:40;;;;;;;;;;;;;;;;;;5031301;28;20052;-85
2022/05/17 10:11:06;;;;;;;;;;;;;;;;;;5031180;28;19913;-85
2022/05/17 10:13:32;;;;;;;;;;;;;;;;;;5032271;28;19917;-85
2022/05/17 10:15:58;;;;;;;;;;;;;;;;;;5031115;28;19932;-85
2022/05/17 10:18:24;;;;;;;;;;;;;;;;;;5031008;28;19909;-84
2022/05/17 10:20:50;;;;;;;;;;;;;;;;;;5030854;28;19963;-84
2022/05/17 10:23:16;;;;;;;;;;;;;;;;;;5032447;28;19916;-85
2022/05/17 10:25:43;;;;;;;;;;;;;;;;;;5031265;28;19913;-85
2022/05/17 10:28:09;;;;;;;;;;;;;;;;;;5031140;28;19913;-83
2022/05/17 10:30:35;;;;;;;;;;;;;;;;;;5030918;28;19916;-84
2022/05/17 10:33:02;;;;;;;;;;;;;;;;;;5031263;28;19910;-85
2022/05/17 10:35:27;;;;;;;;;;;;;;;;;;5032582;28;19920;-84
2022/05/17 10:37:53;;;;;;;;;;;;;;;;;;5031233;28;19909;-84
2022/05/17 10:40:19;;;;;;;;;;;;;;;;;;5031084;28;20380;-87
2022/05/17 10:42:45;;;;;;;;;;;;;;;;;;5031037;28;19909;-86
2022/05/17 10:45:11;;;;;;;;;;;;;;;;;;5031197;28;19924;-87
2022/05/17 10:47:37;;;;;;;;;;;;;;;;;;5031216;28;19910;-86
2022/05/17 10:50:04;;;;;;;;;;;;;;;;;;5030771;28;20364;-86
2022/05/17 10:52:30;;;;;;;;;;;;;;;;;;5031994;28;20213;-86
2022/05/17 10:54:55;;;;;;;;;;;;;;;;;;5030551;28;20353;-86
2022/05/17 10:57:21;;;;;;;;;;;;;;;;;;5031130;28;19913;-86
2022/05/17 10:59:47;;;;;;;;;;;;;;;;;;5031954;28;20324;-86
2022/05/17 11:02:13;;;;;;;;;;;;;;;;;;5031287;28;20004;-86
2022/05/17 11:04:57;;;;;;;;;;;;;;;;;;5031005;28;19963;-85
2022/05/17 11:07:23;;;;;;;;;;;;;;;;;;5030938;28;20008;-85
2022/05/17 11:09:49;;;;;;;;;;;;;;;;;;5030613;28;19913;-85
2022/05/17 11:12:15;;;;;;;;;;;;;;;;;;5030849;28;20270;-86
2022/05/17 11:14:41;;;;;;;;;;;;;;;;;;5030307;28;20440;-86
2022/05/17 11:17:07;;;;;;;;;;;;;;;;;;5030204;28;19960;-86
2022/05/17 11:19:33;;;;;;;;;;;;;;;;;;5030063;28;19909;-85
2022/05/17 11:21:58;;;;;;;;;;;;;;;;;;5031722;28;20334;-86
2022/05/17 11:24:24;;;;;;;;;;;;;;;;;;5030360;28;19909;-86
2022/05/17 11:26:53;;;;;;;;;;;;;;;;;;5036693;28;19953;-85
2022/05/17 11:29:19;;;;;;;;;;;;;;;;;;5046388;28;19912;-86
2022/05/17 11:31:45;;;;;;;;;;;;;;;;;;5048745;28;19920;-84
2022/05/17 11:34:11;;;;;;;;;;;;;;;;;;5042904;28;19918;-85
2022/05/17 11:36:37;;;;;;;;;;;;;;;;;;5047212;28;19999;-86
2022/05/17 11:39:03;;;;;;;;;;;;;;;;;;5049348;28;19916;-86
2022/05/17 11:41:29;;;;;;;;;;;;;;;;;;5041065;28;20435;-84
2022/05/17 11:43:54;;;;;;;;;;;;;;;;;;5049340;28;20054;-85
2022/05/17 11:46:22;;;;;;;;;;;;;;;;;;5049713;28;20276;-85
2022/05/17 11:48:47;;;;;;;;;;;;;;;;;;5041056;28;20089;-85
2022/05/17 11:51:13;;;;;;;;;;;;;;;;;;5049536;28;20459;-82
2022/05/17 11:53:39;;;;;;;;;;;;;;;;;;5055593;28;19917;-83
2022/05/17 11:56:05;;;;;;;;;;;;;;;;;;5057307;28;19923;-85
2022/05/17 11:58:31;;;;;;;;;;;;;;;;;;5049711;28;20021;-86
2022/05/17 12:00:57;;;;;;;;;;;;;;;;;;5061970;28;19912;-86
2022/05/17 12:03:23;;;;;;;;;;;;;;;;;;5053256;28;20288;-85
2022/05/17 12:05:48;;;;;;;;;;;;;;;;;;5051432;28;20117;-85
2022/05/17 12:08:15;;;;;;;;;;;;;;;;;;5053133;28;19912;-85
2022/05/17 12:10:41;;;;;;;;;;;;;;;;;;5053255;28;19935;-85
2022/05/17 12:13:07;;;;;;;;;;;;;;;;;;5058900;28;19917;-85
2022/05/17 12:15:33;;;;;;;;;;;;;;;;;;5055827;28;19916;-85
2022/05/17 12:17:59;;;;;;;;;;;;;;;;;;5055731;28;19909;-86
2022/05/17 12:20:25;;;;;;;;;;;;;;;;;;5048297;28;20287;-85
2022/05/17 12:22:51;;;;;;;;;;;;;;;;;;5061710;28;19916;-86
2022/05/17 12:25:17;;;;;;;;;;;;;;;;;;5065225;28;19948;-87
2022/05/17 12:27:43;;;;;;;;;;;;;;;;;;5052325;28;19960;-87
2022/05/17 12:32:54;;;;;;;;;;;;;;;;;;5054432;28;19920;-87
2022/05/17 12:35:20;;;;;;;;;;;;;;;;;;5054417;28;19909;-87
2022/05/17 12:37:46;;;;;;;;;;;;;;;;;;5053407;28;19909;-87
2022/05/17 12:43:03;;;;;;;;;;;;;;;;;;5055122;28;19916;-86
2022/05/17 12:45:29;;;;;;;;;;;;;;;;;;5056979;28;19917;-86
2022/05/17 12:47:55;;;;;;;;;;;;;;;;;;5066852;28;19916;-86
2022/05/17 12:50:21;;;;;;;;;;;;;;;;;;5077349;28;19951;-86
2022/05/17 12:52:47;;;;;;;;;;;;;;;;;;5071703;28;19959;-87
2022/05/17 12:55:13;;;;;;;;;;;;;;;;;;5075349;28;20383;-84
2022/05/17 12:57:39;;;;;;;;;;;;;;;;;;5057939;28;19913;-85
2022/05/17 13:00:05;;;;;;;;;;;;;;;;;;5086589;28;20038;-86
2022/05/17 13:02:31;;;;;;;;;;;;;;;;;;5085897;28;19905;-85
2022/05/17 13:04:57;;;;;;;;;;;;;;;;;;5085418;28;20020;-86
2022/05/17 13:07:23;;;;;;;;;;;;;;;;;;5087976;28;19966;-86
2022/05/17 13:09:49;;;;;;;;;;;;;;;;;;5061822;28;19912;-86
2022/05/17 13:12:16;;;;;;;;;;;;;;;;;;5052211;28;19913;-86
2022/05/17 13:14:42;;;;;;;;;;;;;;;;;;5052429;28;20291;-86
2022/05/17 13:17:08;;;;;;;;;;;;;;;;;;5052306;28;20150;-87
2022/05/17 13:19:34;;;;;;;;;;;;;;;;;;5051937;28;19923;-85
2022/05/17 13:22:00;;;;;;;;;;;;;;;;;;5052156;28;19912;-85
2022/05/17 13:24:27;;;;;;;;;;;;;;;;;;5052375;28;19905;-85
2022/05/17 13:26:53;;;;;;;;;;;;;;;;;;5051847;28;20352;-86
2022/05/17 13:29:19;;;;;;;;;;;;;;;;;;5033716;28;19948;-85
2022/05/17 13:31:44;;;;;;;;;;;;;;;;;;5032836;28;19909;-85
2022/05/17 13:34:10;;;;;;;;;;;;;;;;;;5046923;28;20011;-85
2022/05/17 13:36:38;;;;;;;;;;;;;;;;;;5046771;28;19913;-85
2022/05/17 13:39:05;;;;;;;;;;;;;;;;;;5052389;28;20360;-85
2022/05/17 13:41:31;;;;;;;;;;;;;;;;;;5063367;28;19921;-85
2022/05/17 13:43:57;;;;;;;;;;;;;;;;;;5055443;28;19925;-85
2022/05/17 13:46:22;;;;;;;;;;;;;;;;;;5047260;28;19919;-85
2022/05/17 13:48:48;;;;;;;;;;;;;;;;;;5062273;28;19917;-84
2022/05/17 13:51:14;;;;;;;;;;;;;;;;;;5044728;28;19917;-85
2022/05/17 13:53:40;;;;;;;;;;;;;;;;;;5044776;28;20288;-85
2022/05/17 13:56:06;;;;;;;;;;;;;;;;;;5072235;28;20041;-87
2022/05/17 13:58:32;;;;;;;;;;;;;;;;;;5053995;28;19916;-85
2022/05/17 14:00:58;;;;;;;;;;;;;;;;;;5043944;28;20372;-83
2022/05/17 14:03:24;;;;;;;;;;;;;;;;;;5051767;28;20318;-85
2022/05/17 14:05:50;;;;;;;;;;;;;;;;;;5050942;28;19920;-85
2022/05/17 14:13:45;;;;;;;;;;;;;;;;;;5051811;28;20006;-86
2022/05/17 14:16:11;;;;;;;;;;;;;;;;;;5063667;28;19909;-84
2022/05/17 14:18:37;;;;;;;;;;;;;;;;;;5050723;28;20462;-85
2022/05/17 14:21:04;;;;;;;;;;;;;;;;;;5050759;28;19919;-83
2022/05/17 14:23:30;;;;;;;;;;;;;;;;;;5050795;28;19916;-82
2022/05/17 14:25:56;;;;;;;;;;;;;;;;;;5051233;28;19933;-82
2022/05/17 14:28:22;;;;;;;;;;;;;;;;;;5042711;28;19913;-82
2022/05/17 14:30:48;;;;;;;;;;;;;;;;;;5051132;28;20307;-82
2022/05/17 14:33:16;;;;;;;;;;;;;;;;;;5046930;28;21542;-82
2022/05/17 14:35:41;;;;;;;;;;;;;;;;;;5053183;28;19909;-82
2022/05/17 14:38:07;;;;;;;;;;;;;;;;;;5052067;28;19971;-82
2022/05/17 14:40:33;;;;;;;;;;;;;;;;;;5049979;28;19917;-82
2022/05/17 14:42:59;;;;;;;;;;;;;;;;;;5043765;28;19917;-82
2022/05/17 14:45:25;;;;;;;;;;;;;;;;;;5052625;28;19923;-82
2022/05/17 14:47:51;;;;;;;;;;;;;;;;;;5049046;28;19924;-82
2022/05/17 14:50:18;;;;;;;;;;;;;;;;;;5049827;28;19917;-82
2022/05/17 14:52:44;;;;;;;;;;;;;;;;;;5046029;28;20492;-83
2022/05/17 14:55:10;;;;;;;;;;;;;;;;;;5048502;28;20004;-81
2022/05/17 14:57:37;;;;;;;;;;;;;;;;;;5050256;28;20396;-82
2022/05/17 15:00:02;;;;;;;;;;;;;;;;;;5046581;28;19912;-82
2022/05/17 15:02:28;;;;;;;;;;;;;;;;;;5048008;28;20569;-82
2022/05/17 15:04:54;;;;;;;;;;;;;;;;;;5048776;28;19917;-82
2022/05/17 15:07:20;;;;;;;;;;;;;;;;;;5049465;28;19952;-82
2022/05/17 15:09:46;;;;;;;;;;;;;;;;;;5052577;28;19909;-82
2022/05/17 15:12:12;;;;;;;;;;;;;;;;;;5049495;28;19958;-82
2022/05/17 15:14:39;;;;;;;;;;;;;;;;;;5061035;28;20320;-82
2022/05/17 15:17:04;;;;;;;;;;;;;;;;;;5050863;28;19963;-82
2022/05/17 15:19:30;;;;;;;;;;;;;;;;;;5048558;28;20331;-82
2022/05/17 15:21:56;;;;;;;;;;;;;;;;;;5047257;28;19924;-82
2022/05/17 15:24:22;;;;;;;;;;;;;;;;;;5052346;28;19919;-82
2022/05/17 15:26:48;;;;;;;;;;;;;;;;;;5047359;28;19913;-82
2022/05/17 15:29:14;;;;;;;;;;;;;;;;;;5060454;28;19913;-82
2022/05/17 15:31:42;;;;;;;;;;;;;;;;;;5048563;28;20334;-82
2022/05/17 15:34:08;;;;;;;;;;;;;;;;;;5055725;28;20007;-82
2022/05/17 15:36:34;;;;;;;;;;;;;;;;;;5054314;28;20017;-82
2022/05/17 15:39:00;;;;;;;;;;;;;;;;;;5052370;28;19913;-82
2022/05/17 15:41:26;;;;;;;;;;;;;;;;;;5047898;28;19913;-82
2022/05/17 15:43:52;;;;;;;;;;;;;;;;;;5050633;28;19975;-82
2022/05/17 15:46:18;;;;;;;;;;;;;;;;;;5049625;28;19912;-82
2022/05/17 15:54:14;;;;;;;;;;;;;;;;;;5046562;28;19923;-82
2022/05/17 15:56:40;;;;;;;;;;;;;;;;;;5049979;28;19912;-82
2022/05/17 15:59:06;;;;;;;;;;;;;;;;;;5049208;28;20372;-82
2022/05/17 16:01:32;;;;;;;;;;;;;;;;;;5052374;28;19919;-82
2022/05/17 16:04:54;;;;;;;;;;;;;;;;;;5061789;28;19921;-82
2022/05/17 16:06:44;;;;;;;;;;;;;;;;;;5054464;28;20470;-82
2022/05/17 16:09:09;;;;;;;;;;;;;;;;;;5054319;28;19952;-82
2022/05/17 16:11:47;;;;;;;;;;;;;;;;;;5051425;28;19917;-82
2022/05/17 16:14:13;;;;;;;;;;;;;;;;;;5054116;28;19956;-82
2022/05/17 16:16:39;;;;;;;;;;;;;;;;;;5056665;28;19943;-82
2022/05/17 16:19:05;;;;;;;;;;;;;;;;;;5045803;28;19913;-82
2022/05/17 16:21:31;;;;;;;;;;;;;;;;;;5055374;28;20282;-82
2022/05/17 16:23:57;;;;;;;;;;;;;;;;;;5047268;28;19935;-82
2022/05/17 16:26:23;;;;;;;;;;;;;;;;;;5057497;28;19932;-82
2022/05/17 16:28:49;;;;;;;;;;;;;;;;;;5048502;28;19917;-82
2022/05/17 16:31:15;;;;;;;;;;;;;;;;;;5068197;28;19917;-82
2022/05/17 16:33:41;;;;;;;;;;;;;;;;;;5053532;28;19924;-82
2022/05/17 16:36:06;;;;;;;;;;;;;;;;;;5049267;28;19994;-83
2022/05/17 16:38:34;;;;;;;;;;;;;;;;;;5068579;28;19944;-82
2022/05/17 16:41:00;;;;;;;;;;;;;;;;;;5054505;28;20010;-82
2022/05/17 16:43:26;;;;;;;;;;;;;;;;;;5053306;28;20339;-82
2022/05/17 16:45:52;;;;;;;;;;;;;;;;;;5055631;28;19917;-82
2022/05/17 16:48:18;;;;;;;;;;;;;;;;;;5065059;28;19912;-82
2022/05/17 16:50:44;;;;;;;;;;;;;;;;;;5050495;28;19924;-82